sensor_id;sensor_type;location;lat;lon;timestamp;P1;durP1;ratioP1;P2;durP2;ratioP2
4468;SDS011;2247;42.666;23.292;2022-10-03T00:01:43;2.60;;;2.40;;
4468;SDS011;2247;42.666;23.292;2022-10-03T00:04:29;3.20;;;2.90;;
4468;SDS011;2247;42.666;23.292;2022-10-03T00:07:09;4.57;;;2.93;;
4468;SDS011;2247;42.666;23.292;2022-10-03T00:09:53;2.90;;;2.70;;
4468;SDS011;2247;42.666;23.292;2022-10-03T00:12:35;4.10;;;3.10;;
4468;SDS011;2247;42.666;23.292;2022-10-03T00:15:12;3.10;;;2.80;;
4468;SDS011;2247;42.666;23.292;2022-10-03T00:17:49;2.87;;;2.67;;
4468;SDS011;2247;42.666;23.292;2022-10-03T00:23:19;2.83;;;2.63;;
4468;SDS011;2247;42.666;23.292;2022-10-03T00:25:56;4.87;;;2.90;;
4468;SDS011;2247;42.666;23.292;2022-10-03T00:28:54;5.73;;;3.00;;
4468;SDS011;2247;42.666;23.292;2022-10-03T00:31:36;4.60;;;3.17;;
4468;SDS011;2247;42.666;23.292;2022-10-03T00:34:13;7.80;;;2.83;;
4468;SDS011;2247;42.666;23.292;2022-10-03T00:36:55;4.20;;;3.00;;
4468;SDS011;2247;42.666;23.292;2022-10-03T00:39:44;6.60;;;2.67;;
4468;SDS011;2247;42.666;23.292;2022-10-03T00:42:41;3.40;;;2.87;;
4468;SDS011;2247;42.666;23.292;2022-10-03T00:51:35;3.03;;;2.73;;
4468;SDS011;2247;42.666;23.292;2022-10-03T00:54:20;5.47;;;3.23;;
4468;SDS011;2247;42.666;23.292;2022-10-03T01:00:10;3.60;;;2.90;;
4468;SDS011;2247;42.666;23.292;2022-10-03T01:02:53;3.17;;;2.87;;
4468;SDS011;2247;42.666;23.292;2022-10-03T01:05:38;4.23;;;2.70;;
4468;SDS011;2247;42.666;23.292;2022-10-03T01:11:16;10.23;;;3.27;;
4468;SDS011;2247;42.666;23.292;2022-10-03T01:13:58;6.07;;;3.47;;
4468;SDS011;2247;42.666;23.292;2022-10-03T01:16:36;10.93;;;3.43;;
4468;SDS011;2247;42.666;23.292;2022-10-03T01:19:11;7.33;;;2.90;;
4468;SDS011;2247;42.666;23.292;2022-10-03T01:21:59;3.13;;;2.83;;
4468;SDS011;2247;42.666;23.292;2022-10-03T01:24:50;3.23;;;2.93;;
4468;SDS011;2247;42.666;23.292;2022-10-03T01:27:30;3.53;;;3.07;;
4468;SDS011;2247;42.666;23.292;2022-10-03T01:30:33;3.60;;;3.30;;
4468;SDS011;2247;42.666;23.292;2022-10-03T01:33:06;3.13;;;2.93;;
4468;SDS011;2247;42.666;23.292;2022-10-03T01:35:41;7.93;;;2.70;;
4468;SDS011;2247;42.666;23.292;2022-10-03T01:38:19;3.30;;;3.00;;
4468;SDS011;2247;42.666;23.292;2022-10-03T01:40:52;3.60;;;3.07;;
4468;SDS011;2247;42.666;23.292;2022-10-03T01:43:31;6.10;;;2.67;;
4468;SDS011;2247;42.666;23.292;2022-10-03T01:46:10;6.07;;;2.97;;
4468;SDS011;2247;42.666;23.292;2022-10-03T01:48:45;3.03;;;2.50;;
4468;SDS011;2247;42.666;23.292;2022-10-03T01:51:22;3.43;;;2.73;;
4468;SDS011;2247;42.666;23.292;2022-10-03T01:54:00;5.23;;;3.07;;
4468;SDS011;2247;42.666;23.292;2022-10-03T01:56:38;4.03;;;2.80;;
4468;SDS011;2247;42.666;23.292;2022-10-03T01:59:10;4.60;;;3.07;;
4468;SDS011;2247;42.666;23.292;2022-10-03T02:01:46;4.13;;;2.57;;
4468;SDS011;2247;42.666;23.292;2022-10-03T02:04:27;11.77;;;2.93;;
4468;SDS011;2247;42.666;23.292;2022-10-03T02:07:04;6.37;;;3.20;;
4468;SDS011;2247;42.666;23.292;2022-10-03T02:09:47;4.40;;;2.80;;
4468;SDS011;2247;42.666;23.292;2022-10-03T02:12:23;3.50;;;2.80;;
4468;SDS011;2247;42.666;23.292;2022-10-03T02:15:00;5.90;;;3.50;;
4468;SDS011;2247;42.666;23.292;2022-10-03T02:17:41;4.37;;;3.00;;
4468;SDS011;2247;42.666;23.292;2022-10-03T02:20:13;4.70;;;2.83;;
4468;SDS011;2247;42.666;23.292;2022-10-03T02:22:51;5.40;;;3.27;;
4468;SDS011;2247;42.666;23.292;2022-10-03T02:25:23;2.80;;;2.60;;
4468;SDS011;2247;42.666;23.292;2022-10-03T02:27:59;3.87;;;2.70;;
4468;SDS011;2247;42.666;23.292;2022-10-03T02:30:55;7.93;;;2.90;;
4468;SDS011;2247;42.666;23.292;2022-10-03T02:33:46;12.03;;;2.60;;
4468;SDS011;2247;42.666;23.292;2022-10-03T02:36:44;4.33;;;2.67;;
4468;SDS011;2247;42.666;23.292;2022-10-03T02:39:58;6.13;;;2.73;;
4468;SDS011;2247;42.666;23.292;2022-10-03T02:42:53;4.43;;;2.50;;
4468;SDS011;2247;42.666;23.292;2022-10-03T02:49:03;3.57;;;2.83;;
4468;SDS011;2247;42.666;23.292;2022-10-03T02:51:57;7.03;;;2.83;;
4468;SDS011;2247;42.666;23.292;2022-10-03T02:54:42;3.57;;;2.63;;
4468;SDS011;2247;42.666;23.292;2022-10-03T03:00:30;5.80;;;2.97;;
4468;SDS011;2247;42.666;23.292;2022-10-03T03:03:23;5.47;;;3.30;;
4468;SDS011;2247;42.666;23.292;2022-10-03T03:06:23;7.07;;;3.17;;
4468;SDS011;2247;42.666;23.292;2022-10-03T03:09:16;3.83;;;3.13;;
4468;SDS011;2247;42.666;23.292;2022-10-03T03:12:07;4.87;;;3.73;;
4468;SDS011;2247;42.666;23.292;2022-10-03T03:18:08;8.67;;;3.10;;
4468;SDS011;2247;42.666;23.292;2022-10-03T03:20:50;6.70;;;3.00;;
4468;SDS011;2247;42.666;23.292;2022-10-03T03:23:34;3.90;;;3.00;;
4468;SDS011;2247;42.666;23.292;2022-10-03T03:29:05;6.97;;;3.80;;
4468;SDS011;2247;42.666;23.292;2022-10-03T03:31:44;4.23;;;2.90;;
4468;SDS011;2247;42.666;23.292;2022-10-03T03:34:21;2.93;;;2.63;;
4468;SDS011;2247;42.666;23.292;2022-10-03T03:36:54;6.70;;;2.93;;
4468;SDS011;2247;42.666;23.292;2022-10-03T03:39:37;6.50;;;2.97;;
4468;SDS011;2247;42.666;23.292;2022-10-03T03:42:24;11.80;;;3.60;;
4468;SDS011;2247;42.666;23.292;2022-10-03T03:45:13;5.47;;;3.53;;
4468;SDS011;2247;42.666;23.292;2022-10-03T03:47:52;12.40;;;3.40;;
4468;SDS011;2247;42.666;23.292;2022-10-03T03:50:34;6.50;;;3.27;;
4468;SDS011;2247;42.666;23.292;2022-10-03T03:53:22;3.60;;;3.30;;
4468;SDS011;2247;42.666;23.292;2022-10-03T03:56:18;6.97;;;3.47;;
4468;SDS011;2247;42.666;23.292;2022-10-03T03:59:02;7.10;;;3.40;;
4468;SDS011;2247;42.666;23.292;2022-10-03T04:01:44;7.33;;;3.63;;
4468;SDS011;2247;42.666;23.292;2022-10-03T04:04:27;8.77;;;3.63;;
4468;SDS011;2247;42.666;23.292;2022-10-03T04:07:12;4.47;;;3.70;;
4468;SDS011;2247;42.666;23.292;2022-10-03T04:09:58;10.13;;;4.07;;
4468;SDS011;2247;42.666;23.292;2022-10-03T04:12:39;9.07;;;4.13;;
4468;SDS011;2247;42.666;23.292;2022-10-03T04:15:32;4.20;;;3.63;;
4468;SDS011;2247;42.666;23.292;2022-10-03T04:18:10;9.90;;;4.07;;
4468;SDS011;2247;42.666;23.292;2022-10-03T04:21:13;9.70;;;3.87;;
4468;SDS011;2247;42.666;23.292;2022-10-03T04:23:55;8.73;;;4.27;;
4468;SDS011;2247;42.666;23.292;2022-10-03T04:26:40;9.63;;;4.10;;
4468;SDS011;2247;42.666;23.292;2022-10-03T04:29:37;8.80;;;3.97;;
4468;SDS011;2247;42.666;23.292;2022-10-03T04:32:19;13.70;;;5.20;;
4468;SDS011;2247;42.666;23.292;2022-10-03T04:37:57;14.70;;;4.70;;
4468;SDS011;2247;42.666;23.292;2022-10-03T04:40:38;5.97;;;4.33;;
4468;SDS011;2247;42.666;23.292;2022-10-03T04:43:12;9.97;;;4.83;;
4468;SDS011;2247;42.666;23.292;2022-10-03T04:46:03;7.23;;;5.10;;
4468;SDS011;2247;42.666;23.292;2022-10-03T04:48:51;11.47;;;4.57;;
4468;SDS011;2247;42.666;23.292;2022-10-03T04:51:28;6.50;;;4.13;;
4468;SDS011;2247;42.666;23.292;2022-10-03T04:54:11;5.97;;;4.10;;
4468;SDS011;2247;42.666;23.292;2022-10-03T04:56:47;8.17;;;4.63;;
4468;SDS011;2247;42.666;23.292;2022-10-03T05:02:15;4.13;;;3.23;;
4468;SDS011;2247;42.666;23.292;2022-10-03T05:04:52;9.00;;;3.70;;
4468;SDS011;2247;42.666;23.292;2022-10-03T05:07:31;9.10;;;3.33;;
4468;SDS011;2247;42.666;23.292;2022-10-03T05:10:16;8.27;;;3.83;;
4468;SDS011;2247;42.666;23.292;2022-10-03T05:12:53;5.23;;;3.60;;
4468;SDS011;2247;42.666;23.292;2022-10-03T05:15:28;5.93;;;3.90;;
4468;SDS011;2247;42.666;23.292;2022-10-03T05:18:04;5.73;;;4.70;;
4468;SDS011;2247;42.666;23.292;2022-10-03T05:20:51;14.53;;;4.30;;
4468;SDS011;2247;42.666;23.292;2022-10-03T05:23:28;12.30;;;3.80;;
4468;SDS011;2247;42.666;23.292;2022-10-03T05:26:14;12.73;;;3.83;;
4468;SDS011;2247;42.666;23.292;2022-10-03T05:28:53;12.40;;;3.83;;
4468;SDS011;2247;42.666;23.292;2022-10-03T05:31:30;9.23;;;4.70;;
4468;SDS011;2247;42.666;23.292;2022-10-03T05:34:11;7.03;;;3.70;;
4468;SDS011;2247;42.666;23.292;2022-10-03T05:36:54;13.43;;;4.17;;
4468;SDS011;2247;42.666;23.292;2022-10-03T05:39:34;5.80;;;4.00;;
4468;SDS011;2247;42.666;23.292;2022-10-03T05:45:01;14.90;;;5.33;;
4468;SDS011;2247;42.666;23.292;2022-10-03T05:47:31;15.07;;;4.90;;
4468;SDS011;2247;42.666;23.292;2022-10-03T05:50:17;10.07;;;4.60;;
4468;SDS011;2247;42.666;23.292;2022-10-03T05:53:01;12.93;;;4.70;;
4468;SDS011;2247;42.666;23.292;2022-10-03T05:55:52;9.93;;;5.00;;
4468;SDS011;2247;42.666;23.292;2022-10-03T06:02:02;10.20;;;4.30;;
4468;SDS011;2247;42.666;23.292;2022-10-03T06:07:56;12.83;;;3.73;;
4468;SDS011;2247;42.666;23.292;2022-10-03T06:10:46;12.13;;;3.67;;
4468;SDS011;2247;42.666;23.292;2022-10-03T06:13:24;7.20;;;5.00;;
4468;SDS011;2247;42.666;23.292;2022-10-03T06:16:10;10.83;;;5.03;;
4468;SDS011;2247;42.666;23.292;2022-10-03T06:24:59;14.50;;;4.70;;
4468;SDS011;2247;42.666;23.292;2022-10-03T06:27:57;9.53;;;5.23;;
4468;SDS011;2247;42.666;23.292;2022-10-03T06:31:00;14.40;;;5.07;;
4468;SDS011;2247;42.666;23.292;2022-10-03T06:34:03;8.43;;;5.03;;
4468;SDS011;2247;42.666;23.292;2022-10-03T06:37:00;12.10;;;5.07;;
4468;SDS011;2247;42.666;23.292;2022-10-03T06:39:57;13.17;;;4.90;;
4468;SDS011;2247;42.666;23.292;2022-10-03T06:49:14;20.20;;;7.50;;
4468;SDS011;2247;42.666;23.292;2022-10-03T06:52:18;16.20;;;6.50;;
4468;SDS011;2247;42.666;23.292;2022-10-03T06:55:07;19.03;;;5.90;;
4468;SDS011;2247;42.666;23.292;2022-10-03T07:01:03;8.63;;;4.90;;
4468;SDS011;2247;42.666;23.292;2022-10-03T07:04:01;9.20;;;4.80;;
4468;SDS011;2247;42.666;23.292;2022-10-03T07:06:51;7.53;;;4.90;;
4468;SDS011;2247;42.666;23.292;2022-10-03T07:09:48;17.23;;;4.80;;
4468;SDS011;2247;42.666;23.292;2022-10-03T07:12:51;12.33;;;4.50;;
4468;SDS011;2247;42.666;23.292;2022-10-03T07:28:17;17.23;;;7.70;;
4468;SDS011;2247;42.666;23.292;2022-10-03T07:31:07;13.33;;;6.83;;
4468;SDS011;2247;42.666;23.292;2022-10-03T07:33:49;23.73;;;8.53;;
4468;SDS011;2247;42.666;23.292;2022-10-03T07:36:50;22.40;;;10.43;;
4468;SDS011;2247;42.666;23.292;2022-10-03T07:40:07;17.13;;;8.63;;
4468;SDS011;2247;42.666;23.292;2022-10-03T07:42:57;18.13;;;8.77;;
4468;SDS011;2247;42.666;23.292;2022-10-03T07:45:45;24.67;;;9.17;;
4468;SDS011;2247;42.666;23.292;2022-10-03T07:48:41;17.70;;;8.27;;
4468;SDS011;2247;42.666;23.292;2022-10-03T07:51:21;17.70;;;8.17;;
4468;SDS011;2247;42.666;23.292;2022-10-03T07:56:56;9.47;;;6.30;;
4468;SDS011;2247;42.666;23.292;2022-10-03T08:02:39;17.70;;;9.10;;
4468;SDS011;2247;42.666;23.292;2022-10-03T08:05:35;12.10;;;6.50;;
4468;SDS011;2247;42.666;23.292;2022-10-03T08:08:17;14.57;;;6.57;;
4468;SDS011;2247;42.666;23.292;2022-10-03T08:11:06;12.77;;;6.47;;
4468;SDS011;2247;42.666;23.292;2022-10-03T08:13:53;17.23;;;7.00;;
4468;SDS011;2247;42.666;23.292;2022-10-03T08:16:40;15.33;;;6.10;;
4468;SDS011;2247;42.666;23.292;2022-10-03T08:19:35;12.27;;;6.50;;
4468;SDS011;2247;42.666;23.292;2022-10-03T08:22:19;13.97;;;6.33;;
4468;SDS011;2247;42.666;23.292;2022-10-03T08:25:07;10.67;;;6.50;;
4468;SDS011;2247;42.666;23.292;2022-10-03T08:28:01;13.60;;;6.83;;
4468;SDS011;2247;42.666;23.292;2022-10-03T08:30:48;6.93;;;4.77;;
4468;SDS011;2247;42.666;23.292;2022-10-03T08:33:38;9.43;;;4.53;;
4468;SDS011;2247;42.666;23.292;2022-10-03T08:39:29;6.40;;;3.87;;
4468;SDS011;2247;42.666;23.292;2022-10-03T08:45:31;8.37;;;3.10;;
4468;SDS011;2247;42.666;23.292;2022-10-03T08:48:32;4.87;;;3.00;;
4468;SDS011;2247;42.666;23.292;2022-10-03T08:57:38;6.77;;;3.23;;
4468;SDS011;2247;42.666;23.292;2022-10-03T09:00:26;6.83;;;3.27;;
4468;SDS011;2247;42.666;23.292;2022-10-03T09:06:16;4.30;;;3.07;;
4468;SDS011;2247;42.666;23.292;2022-10-03T09:09:12;4.83;;;3.20;;
4468;SDS011;2247;42.666;23.292;2022-10-03T09:12:02;3.40;;;2.60;;
4468;SDS011;2247;42.666;23.292;2022-10-03T09:14:56;5.93;;;2.83;;
4468;SDS011;2247;42.666;23.292;2022-10-03T09:17:56;4.67;;;3.93;;
4468;SDS011;2247;42.666;23.292;2022-10-03T09:20:51;4.73;;;3.40;;
4468;SDS011;2247;42.666;23.292;2022-10-03T09:26:54;3.97;;;2.70;;
4468;SDS011;2247;42.666;23.292;2022-10-03T09:29:58;3.83;;;3.20;;
4468;SDS011;2247;42.666;23.292;2022-10-03T09:36:12;4.07;;;2.80;;
4468;SDS011;2247;42.666;23.292;2022-10-03T09:39:11;7.73;;;3.07;;
4468;SDS011;2247;42.666;23.292;2022-10-03T09:48:32;5.03;;;3.63;;
4468;SDS011;2247;42.666;23.292;2022-10-03T09:51:17;5.70;;;2.90;;
4468;SDS011;2247;42.666;23.292;2022-10-03T09:54:07;4.80;;;2.83;;
4468;SDS011;2247;42.666;23.292;2022-10-03T10:00:13;3.60;;;2.63;;
4468;SDS011;2247;42.666;23.292;2022-10-03T10:05:51;4.30;;;3.50;;
4468;SDS011;2247;42.666;23.292;2022-10-03T10:09:00;5.83;;;3.60;;
4468;SDS011;2247;42.666;23.292;2022-10-03T10:12:01;3.27;;;2.97;;
4468;SDS011;2247;42.666;23.292;2022-10-03T10:14:41;7.83;;;5.27;;
4468;SDS011;2247;42.666;23.292;2022-10-03T10:17:29;3.30;;;3.00;;
4468;SDS011;2247;42.666;23.292;2022-10-03T10:20:29;4.50;;;3.50;;
4468;SDS011;2247;42.666;23.292;2022-10-03T10:23:33;3.47;;;3.27;;
4468;SDS011;2247;42.666;23.292;2022-10-03T10:29:27;4.37;;;3.47;;
4468;SDS011;2247;42.666;23.292;2022-10-03T10:45:23;2.50;;;2.30;;
4468;SDS011;2247;42.666;23.292;2022-10-03T10:51:15;2.17;;;2.07;;
4468;SDS011;2247;42.666;23.292;2022-10-03T10:57:15;3.03;;;2.23;;
4468;SDS011;2247;42.666;23.292;2022-10-03T11:15:32;3.07;;;2.40;;
4468;SDS011;2247;42.666;23.292;2022-10-03T11:24:55;9.20;;;2.90;;
4468;SDS011;2247;42.666;23.292;2022-10-03T11:37:33;5.47;;;2.97;;
4468;SDS011;2247;42.666;23.292;2022-10-03T11:40:15;3.80;;;3.40;;
4468;SDS011;2247;42.666;23.292;2022-10-03T11:42:54;4.77;;;4.33;;
4468;SDS011;2247;42.666;23.292;2022-10-03T11:45:25;6.40;;;3.87;;
4468;SDS011;2247;42.666;23.292;2022-10-03T11:48:04;3.97;;;3.67;;
4468;SDS011;2247;42.666;23.292;2022-10-03T11:50:47;3.47;;;3.27;;
4468;SDS011;2247;42.666;23.292;2022-10-03T11:53:21;6.57;;;3.53;;
4468;SDS011;2247;42.666;23.292;2022-10-03T11:58:53;5.73;;;3.60;;
4468;SDS011;2247;42.666;23.292;2022-10-03T12:01:34;4.30;;;3.87;;
4468;SDS011;2247;42.666;23.292;2022-10-03T12:04:12;12.23;;;4.10;;
4468;SDS011;2247;42.666;23.292;2022-10-03T12:06:53;4.27;;;3.87;;
4468;SDS011;2247;42.666;23.292;2022-10-03T12:09:46;4.93;;;4.53;;
4468;SDS011;2247;42.666;23.292;2022-10-03T12:12:29;10.23;;;4.27;;
4468;SDS011;2247;42.666;23.292;2022-10-03T12:15:04;4.50;;;4.10;;
4468;SDS011;2247;42.666;23.292;2022-10-03T12:17:47;4.53;;;4.13;;
4468;SDS011;2247;42.666;23.292;2022-10-03T12:20:27;5.57;;;4.50;;
4468;SDS011;2247;42.666;23.292;2022-10-03T12:23:01;4.60;;;4.20;;
4468;SDS011;2247;42.666;23.292;2022-10-03T12:25:40;5.10;;;4.70;;
4468;SDS011;2247;42.666;23.292;2022-10-03T12:28:13;5.30;;;4.77;;
4468;SDS011;2247;42.666;23.292;2022-10-03T12:30:47;4.73;;;3.90;;
4468;SDS011;2247;42.666;23.292;2022-10-03T12:33:26;5.07;;;4.20;;
4468;SDS011;2247;42.666;23.292;2022-10-03T12:36:09;5.30;;;4.60;;
4468;SDS011;2247;42.666;23.292;2022-10-03T12:38:51;4.20;;;3.80;;
4468;SDS011;2247;42.666;23.292;2022-10-03T12:41:46;4.30;;;3.90;;
4468;SDS011;2247;42.666;23.292;2022-10-03T12:44:26;4.13;;;3.83;;
4468;SDS011;2247;42.666;23.292;2022-10-03T12:47:10;4.80;;;4.40;;
4468;SDS011;2247;42.666;23.292;2022-10-03T12:49:51;5.10;;;3.97;;
4468;SDS011;2247;42.666;23.292;2022-10-03T12:52:23;5.30;;;4.10;;
4468;SDS011;2247;42.666;23.292;2022-10-03T12:54:57;8.17;;;5.27;;
4468;SDS011;2247;42.666;23.292;2022-10-03T12:57:49;9.20;;;4.77;;
4468;SDS011;2247;42.666;23.292;2022-10-03T13:00:22;5.10;;;4.70;;
4468;SDS011;2247;42.666;23.292;2022-10-03T13:03:05;5.40;;;4.90;;
4468;SDS011;2247;42.666;23.292;2022-10-03T13:05:52;5.77;;;5.30;;
4468;SDS011;2247;42.666;23.292;2022-10-03T13:08:41;7.70;;;5.53;;
4468;SDS011;2247;42.666;23.292;2022-10-03T13:11:23;6.27;;;5.20;;
4468;SDS011;2247;42.666;23.292;2022-10-03T13:14:05;6.33;;;4.40;;
4468;SDS011;2247;42.666;23.292;2022-10-03T13:16:42;5.40;;;4.40;;
4468;SDS011;2247;42.666;23.292;2022-10-03T13:19:20;5.60;;;5.10;;
4468;SDS011;2247;42.666;23.292;2022-10-03T13:21:54;5.60;;;5.00;;
4468;SDS011;2247;42.666;23.292;2022-10-03T13:24:35;5.53;;;5.03;;
4468;SDS011;2247;42.666;23.292;2022-10-03T13:27:20;4.97;;;4.47;;
4468;SDS011;2247;42.666;23.292;2022-10-03T13:30:01;5.30;;;4.80;;
4468;SDS011;2247;42.666;23.292;2022-10-03T13:32:31;4.80;;;4.40;;
4468;SDS011;2247;42.666;23.292;2022-10-03T13:35:02;4.73;;;4.33;;
4468;SDS011;2247;42.666;23.292;2022-10-03T13:41:05;5.07;;;4.57;;
4468;SDS011;2247;42.666;23.292;2022-10-03T13:43:42;4.53;;;4.10;;
4468;SDS011;2247;42.666;23.292;2022-10-03T13:46:17;3.80;;;3.50;;
4468;SDS011;2247;42.666;23.292;2022-10-03T13:48:53;4.40;;;4.07;;
4468;SDS011;2247;42.666;23.292;2022-10-03T13:51:26;6.80;;;4.43;;
4468;SDS011;2247;42.666;23.292;2022-10-03T13:54:02;3.60;;;3.40;;
4468;SDS011;2247;42.666;23.292;2022-10-03T13:56:37;4.63;;;4.23;;
4468;SDS011;2247;42.666;23.292;2022-10-03T13:59:14;5.07;;;4.40;;
4468;SDS011;2247;42.666;23.292;2022-10-03T14:02:03;6.80;;;4.27;;
4468;SDS011;2247;42.666;23.292;2022-10-03T14:04:54;4.83;;;4.43;;
4468;SDS011;2247;42.666;23.292;2022-10-03T14:07:34;4.30;;;3.90;;
4468;SDS011;2247;42.666;23.292;2022-10-03T14:10:16;4.23;;;3.93;;
4468;SDS011;2247;42.666;23.292;2022-10-03T14:12:59;3.90;;;3.60;;
4468;SDS011;2247;42.666;23.292;2022-10-03T14:15:42;3.97;;;3.50;;
4468;SDS011;2247;42.666;23.292;2022-10-03T14:18:21;4.77;;;4.20;;
4468;SDS011;2247;42.666;23.292;2022-10-03T14:24:03;4.80;;;4.13;;
4468;SDS011;2247;42.666;23.292;2022-10-03T14:26:38;3.50;;;3.20;;
4468;SDS011;2247;42.666;23.292;2022-10-03T14:29:16;3.97;;;3.17;;
4468;SDS011;2247;42.666;23.292;2022-10-03T14:31:51;4.00;;;3.60;;
4468;SDS011;2247;42.666;23.292;2022-10-03T14:34:36;6.97;;;3.10;;
4468;SDS011;2247;42.666;23.292;2022-10-03T14:37:28;3.40;;;3.13;;
4468;SDS011;2247;42.666;23.292;2022-10-03T14:40:10;7.20;;;3.17;;
4468;SDS011;2247;42.666;23.292;2022-10-03T14:42:56;6.83;;;3.40;;
4468;SDS011;2247;42.666;23.292;2022-10-03T14:45:32;3.60;;;3.10;;
4468;SDS011;2247;42.666;23.292;2022-10-03T14:48:11;3.90;;;3.07;;
4468;SDS011;2247;42.666;23.292;2022-10-03T14:50:44;3.80;;;3.50;;
4468;SDS011;2247;42.666;23.292;2022-10-03T14:53:17;3.53;;;3.30;;
4468;SDS011;2247;42.666;23.292;2022-10-03T14:55:51;7.80;;;3.50;;
4468;SDS011;2247;42.666;23.292;2022-10-03T14:58:25;4.00;;;3.60;;
4468;SDS011;2247;42.666;23.292;2022-10-03T15:01:05;3.53;;;3.33;;
4468;SDS011;2247;42.666;23.292;2022-10-03T15:03:39;4.07;;;3.77;;
4468;SDS011;2247;42.666;23.292;2022-10-03T15:06:33;4.77;;;4.37;;
4468;SDS011;2247;42.666;23.292;2022-10-03T15:09:15;4.57;;;4.17;;
4468;SDS011;2247;42.666;23.292;2022-10-03T15:11:47;5.77;;;4.40;;
4468;SDS011;2247;42.666;23.292;2022-10-03T15:14:19;4.60;;;4.20;;
4468;SDS011;2247;42.666;23.292;2022-10-03T15:16:49;4.57;;;4.17;;
4468;SDS011;2247;42.666;23.292;2022-10-03T15:19:19;5.83;;;4.50;;
4468;SDS011;2247;42.666;23.292;2022-10-03T15:21:54;4.50;;;4.10;;
4468;SDS011;2247;42.666;23.292;2022-10-03T15:24:30;6.80;;;3.57;;
4468;SDS011;2247;42.666;23.292;2022-10-03T15:26:59;5.53;;;4.37;;
4468;SDS011;2247;42.666;23.292;2022-10-03T15:29:31;4.30;;;4.00;;
4468;SDS011;2247;42.666;23.292;2022-10-03T15:32:02;4.03;;;3.73;;
4468;SDS011;2247;42.666;23.292;2022-10-03T15:34:32;4.37;;;3.93;;
4468;SDS011;2247;42.666;23.292;2022-10-03T15:37:06;4.20;;;3.80;;
4468;SDS011;2247;42.666;23.292;2022-10-03T15:39:41;7.10;;;4.20;;
4468;SDS011;2247;42.666;23.292;2022-10-03T15:42:18;4.73;;;4.20;;
4468;SDS011;2247;42.666;23.292;2022-10-03T15:44:49;4.20;;;3.80;;
4468;SDS011;2247;42.666;23.292;2022-10-03T15:47:22;7.13;;;4.10;;
4468;SDS011;2247;42.666;23.292;2022-10-03T15:49:52;4.60;;;3.80;;
4468;SDS011;2247;42.666;23.292;2022-10-03T15:52:30;4.07;;;3.67;;
4468;SDS011;2247;42.666;23.292;2022-10-03T15:55:04;3.77;;;3.47;;
4468;SDS011;2247;42.666;23.292;2022-10-03T15:57:42;4.87;;;3.17;;
4468;SDS011;2247;42.666;23.292;2022-10-03T16:00:18;3.27;;;3.07;;
4468;SDS011;2247;42.666;23.292;2022-10-03T16:02:50;5.87;;;3.17;;
4468;SDS011;2247;42.666;23.292;2022-10-03T16:05:25;3.33;;;3.03;;
4468;SDS011;2247;42.666;23.292;2022-10-03T16:07:56;2.90;;;2.70;;
4468;SDS011;2247;42.666;23.292;2022-10-03T16:10:27;4.13;;;3.77;;
4468;SDS011;2247;42.666;23.292;2022-10-03T16:12:58;2.80;;;2.60;;
4468;SDS011;2247;42.666;23.292;2022-10-03T16:15:46;4.00;;;3.10;;
4468;SDS011;2247;42.666;23.292;2022-10-03T16:21:19;7.00;;;3.10;;
4468;SDS011;2247;42.666;23.292;2022-10-03T16:23:58;2.90;;;2.70;;
4468;SDS011;2247;42.666;23.292;2022-10-03T16:26:30;4.37;;;3.20;;
4468;SDS011;2247;42.666;23.292;2022-10-03T16:29:02;3.60;;;2.67;;
4468;SDS011;2247;42.666;23.292;2022-10-03T16:31:51;6.13;;;3.13;;
4468;SDS011;2247;42.666;23.292;2022-10-03T16:34:21;2.97;;;2.77;;
4468;SDS011;2247;42.666;23.292;2022-10-03T16:36:50;3.00;;;2.80;;
4468;SDS011;2247;42.666;23.292;2022-10-03T16:39:22;6.20;;;3.20;;
4468;SDS011;2247;42.666;23.292;2022-10-03T16:41:51;5.63;;;3.07;;
4468;SDS011;2247;42.666;23.292;2022-10-03T16:44:22;3.40;;;3.10;;
4468;SDS011;2247;42.666;23.292;2022-10-03T16:46:53;10.67;;;3.30;;
4468;SDS011;2247;42.666;23.292;2022-10-03T16:49:38;4.33;;;3.40;;
4468;SDS011;2247;42.666;23.292;2022-10-03T16:52:28;6.53;;;3.40;;
4468;SDS011;2247;42.666;23.292;2022-10-03T16:55:01;5.73;;;3.60;;
4468;SDS011;2247;42.666;23.292;2022-10-03T16:57:34;4.07;;;3.67;;
4468;SDS011;2247;42.666;23.292;2022-10-03T17:00:15;4.70;;;3.60;;
4468;SDS011;2247;42.666;23.292;2022-10-03T17:02:43;5.00;;;3.43;;
4468;SDS011;2247;42.666;23.292;2022-10-03T17:05:13;6.13;;;4.00;;
4468;SDS011;2247;42.666;23.292;2022-10-03T17:07:42;11.23;;;4.13;;
4468;SDS011;2247;42.666;23.292;2022-10-03T17:10:22;4.07;;;3.47;;
4468;SDS011;2247;42.666;23.292;2022-10-03T17:12:55;3.70;;;3.40;;
4468;SDS011;2247;42.666;23.292;2022-10-03T17:15:26;4.00;;;3.60;;
4468;SDS011;2247;42.666;23.292;2022-10-03T17:17:56;3.60;;;3.30;;
4468;SDS011;2247;42.666;23.292;2022-10-03T17:20:37;3.47;;;3.17;;
4468;SDS011;2247;42.666;23.292;2022-10-03T17:23:09;3.70;;;3.40;;
4468;SDS011;2247;42.666;23.292;2022-10-03T17:25:47;3.47;;;3.17;;
4468;SDS011;2247;42.666;23.292;2022-10-03T17:28:26;3.60;;;3.30;;
4468;SDS011;2247;42.666;23.292;2022-10-03T17:31:00;3.13;;;2.93;;
4468;SDS011;2247;42.666;23.292;2022-10-03T17:33:31;3.10;;;2.80;;
4468;SDS011;2247;42.666;23.292;2022-10-03T17:36:13;3.20;;;2.90;;
4468;SDS011;2247;42.666;23.292;2022-10-03T17:39:02;3.07;;;2.77;;
4468;SDS011;2247;42.666;23.292;2022-10-03T17:41:34;6.83;;;3.30;;
4468;SDS011;2247;42.666;23.292;2022-10-03T17:44:17;3.30;;;3.00;;
4468;SDS011;2247;42.666;23.292;2022-10-03T17:46:56;3.60;;;3.30;;
4468;SDS011;2247;42.666;23.292;2022-10-03T17:49:37;4.40;;;3.60;;
4468;SDS011;2247;42.666;23.292;2022-10-03T17:52:15;3.30;;;3.00;;
4468;SDS011;2247;42.666;23.292;2022-10-03T17:54:45;6.77;;;4.03;;
4468;SDS011;2247;42.666;23.292;2022-10-03T17:57:22;8.10;;;3.33;;
4468;SDS011;2247;42.666;23.292;2022-10-03T17:59:54;5.87;;;3.63;;
4468;SDS011;2247;42.666;23.292;2022-10-03T18:02:32;5.10;;;3.80;;
4468;SDS011;2247;42.666;23.292;2022-10-03T18:05:06;3.87;;;3.57;;
4468;SDS011;2247;42.666;23.292;2022-10-03T18:07:40;3.50;;;3.20;;
4468;SDS011;2247;42.666;23.292;2022-10-03T18:10:18;4.00;;;2.73;;
4468;SDS011;2247;42.666;23.292;2022-10-03T18:12:51;4.10;;;3.00;;
4468;SDS011;2247;42.666;23.292;2022-10-03T18:24:38;3.37;;;3.07;;
4468;SDS011;2247;42.666;23.292;2022-10-03T18:30:30;3.30;;;3.00;;
4468;SDS011;2247;42.666;23.292;2022-10-03T18:33:00;2.83;;;2.57;;
4468;SDS011;2247;42.666;23.292;2022-10-03T18:35:32;2.70;;;2.50;;
4468;SDS011;2247;42.666;23.292;2022-10-03T18:38:06;4.17;;;2.60;;
4468;SDS011;2247;42.666;23.292;2022-10-03T18:40:42;3.03;;;2.70;;
4468;SDS011;2247;42.666;23.292;2022-10-03T18:43:21;9.77;;;2.47;;
4468;SDS011;2247;42.666;23.292;2022-10-03T18:45:55;2.40;;;2.20;;
4468;SDS011;2247;42.666;23.292;2022-10-03T18:48:33;3.60;;;2.53;;
4468;SDS011;2247;42.666;23.292;2022-10-03T18:51:11;3.57;;;2.47;;
4468;SDS011;2247;42.666;23.292;2022-10-03T18:53:43;2.50;;;2.30;;
4468;SDS011;2247;42.666;23.292;2022-10-03T18:56:17;2.63;;;2.30;;
4468;SDS011;2247;42.666;23.292;2022-10-03T18:58:56;2.30;;;2.10;;
4468;SDS011;2247;42.666;23.292;2022-10-03T19:01:38;3.60;;;2.30;;
4468;SDS011;2247;42.666;23.292;2022-10-03T19:04:11;2.80;;;2.40;;
4468;SDS011;2247;42.666;23.292;2022-10-03T19:06:43;4.77;;;2.20;;
4468;SDS011;2247;42.666;23.292;2022-10-03T19:09:16;7.63;;;2.40;;
4468;SDS011;2247;42.666;23.292;2022-10-03T19:11:47;2.87;;;2.30;;
4468;SDS011;2247;42.666;23.292;2022-10-03T19:14:24;3.10;;;2.50;;
4468;SDS011;2247;42.666;23.292;2022-10-03T19:17:20;3.17;;;2.53;;
4468;SDS011;2247;42.666;23.292;2022-10-03T19:19:55;3.37;;;2.80;;
4468;SDS011;2247;42.666;23.292;2022-10-03T19:22:27;3.03;;;2.70;;
4468;SDS011;2247;42.666;23.292;2022-10-03T19:24:57;3.47;;;2.83;;
4468;SDS011;2247;42.666;23.292;2022-10-03T19:27:38;4.67;;;2.90;;
4468;SDS011;2247;42.666;23.292;2022-10-03T19:30:08;3.27;;;2.80;;
4468;SDS011;2247;42.666;23.292;2022-10-03T19:32:45;2.90;;;2.30;;
4468;SDS011;2247;42.666;23.292;2022-10-03T19:35:16;2.27;;;2.17;;
4468;SDS011;2247;42.666;23.292;2022-10-03T19:37:46;4.40;;;2.37;;
4468;SDS011;2247;42.666;23.292;2022-10-03T19:40:23;3.20;;;2.33;;